createdAt,value
2023-02-06T00:00:53.277Z,131.40
2023-02-06T00:03:39.641Z,137.53
2023-02-06T00:06:06.204Z,139.53
2023-02-06T00:08:33.805Z,122.57
2023-02-06T00:11:06.614Z,122.47
2023-02-06T00:13:34.700Z,109.23
2023-02-06T00:16:01.869Z,111.73
2023-02-06T00:18:28.604Z,119.80
2023-02-06T00:20:54.846Z,113.70
2023-02-06T00:23:21.424Z,120.30
2023-02-06T00:25:47.601Z,98.40
2023-02-06T00:28:14.288Z,101.70
2023-02-06T00:30:40.522Z,95.93
2023-02-06T00:33:07.061Z,98.87
2023-02-06T00:35:34.121Z,107.57
2023-02-06T00:38:01.720Z,114.37
2023-02-06T00:40:28.580Z,114.27
2023-02-06T00:42:55.060Z,109.43
2023-02-06T00:45:21.304Z,116.53
2023-02-06T00:47:47.775Z,125.27
2023-02-06T00:50:14.966Z,109.37
2023-02-06T00:52:43.014Z,114.47
2023-02-06T00:55:10.266Z,118.23
2023-02-06T00:57:36.739Z,120.03
2023-02-06T01:00:07.989Z,109.07
2023-02-06T01:02:35.268Z,109.00
2023-02-06T01:05:01.866Z,107.73
2023-02-06T01:07:28.571Z,119.33
2023-02-06T01:09:54.720Z,116.00
2023-02-06T01:12:21.154Z,105.27
2023-02-06T01:14:47.307Z,109.83
2023-02-06T01:17:13.785Z,116.23
2023-02-06T01:19:40.161Z,125.10
2023-02-06T01:22:06.849Z,116.17
2023-02-06T01:24:33.044Z,139.33
2023-02-06T01:26:59.678Z,109.63
2023-02-06T01:29:25.945Z,113.33
2023-02-06T01:31:52.341Z,102.63
2023-02-06T01:34:18.739Z,105.47
2023-02-06T01:36:45.312Z,111.80
2023-02-06T01:39:11.457Z,129.80
2023-02-06T01:41:38.200Z,118.87
2023-02-06T01:44:14.122Z,117.77
2023-02-06T01:46:42.824Z,122.40
2023-02-06T01:49:14.764Z,110.70
2023-02-06T01:51:41.787Z,141.37
2023-02-06T01:54:08.778Z,132.80
2023-02-06T01:56:49.170Z,142.10
2023-02-06T01:59:15.487Z,142.70
2023-02-06T02:01:42.612Z,132.63
2023-02-06T02:04:16.699Z,134.73
2023-02-06T02:06:49.641Z,128.27
2023-02-06T02:09:17.740Z,130.33
2023-02-06T02:11:44.188Z,132.40
2023-02-06T02:14:14.334Z,130.67
2023-02-06T02:16:56.814Z,130.43
2023-02-06T02:20:02.658Z,123.47
2023-02-06T02:22:54.421Z,114.47
2023-02-06T02:26:02.235Z,120.10
2023-02-06T02:29:22.942Z,119.83
2023-02-06T02:31:57.474Z,119.97
2023-02-06T02:34:45.737Z,111.23
2023-02-06T02:37:38.575Z,114.10
2023-02-06T02:40:24.399Z,111.73
2023-02-06T02:43:09.715Z,120.13
2023-02-06T02:45:59.060Z,115.03
2023-02-06T02:48:33.414Z,125.47
2023-02-06T02:51:01.432Z,108.73
2023-02-06T02:53:27.754Z,107.17
2023-02-06T02:55:54.433Z,114.53
2023-02-06T02:58:28.207Z,114.77
2023-02-06T03:01:00.660Z,107.13
2023-02-06T03:03:28.995Z,104.77
2023-02-06T03:06:07.125Z,93.00
2023-02-06T03:08:39.469Z,105.03
2023-02-06T03:11:19.404Z,173.10
2023-02-06T03:13:52.991Z,119.17
2023-02-06T03:16:40.846Z,105.87
2023-02-06T03:19:14.398Z,96.60
2023-02-06T03:21:42.147Z,98.77
2023-02-06T03:24:16.504Z,98.27
2023-02-06T03:26:44.427Z,92.00
2023-02-06T03:29:15.235Z,98.50
2023-02-06T03:31:48.895Z,91.90
2023-02-06T03:34:51.235Z,95.87
2023-02-06T03:37:20.491Z,86.97
2023-02-06T03:39:46.682Z,87.50
2023-02-06T03:42:15.255Z,102.63
2023-02-06T03:44:46.067Z,101.53
2023-02-06T03:47:15.281Z,86.40
2023-02-06T03:49:43.162Z,97.53
2023-02-06T03:52:14.092Z,97.03
2023-02-06T03:54:49.527Z,87.27
2023-02-06T03:57:18.678Z,84.40
2023-02-06T03:59:45.933Z,103.53
2023-02-06T04:02:14.217Z,99.43
2023-02-06T04:04:41.725Z,97.33
2023-02-06T04:07:16.283Z,82.33
2023-02-06T04:09:42.821Z,99.00
2023-02-06T04:12:09.361Z,92.93
2023-02-06T04:14:36.160Z,97.33
2023-02-06T04:17:06.535Z,97.63
2023-02-06T04:19:33.876Z,96.47
2023-02-06T04:22:00.537Z,87.00
2023-02-06T04:24:27.692Z,87.07
2023-02-06T04:26:54.835Z,93.60
2023-02-06T04:29:20.943Z,93.77
2023-02-06T04:31:47.316Z,83.53
2023-02-06T04:34:13.768Z,86.30
2023-02-06T04:36:40.211Z,90.63
2023-02-06T04:39:06.680Z,85.57
2023-02-06T04:41:33.269Z,82.77
2023-02-06T04:43:59.827Z,99.47
2023-02-06T04:46:26.568Z,99.60
2023-02-06T04:48:52.738Z,96.20
2023-02-06T04:51:19.351Z,190.77
2023-02-06T04:53:45.457Z,138.10
2023-02-06T04:56:12.610Z,150.67
2023-02-06T04:58:39.834Z,138.53
2023-02-06T05:01:06.427Z,138.17
2023-02-06T05:03:33.668Z,103.83
2023-02-06T05:06:01.335Z,101.73
2023-02-06T05:08:28.080Z,103.67
2023-02-06T05:10:55.832Z,105.47
2023-02-06T05:13:23.080Z,93.30
2023-02-06T05:15:49.826Z,93.80
2023-02-06T05:18:16.081Z,93.23
2023-02-06T05:20:43.219Z,86.97
2023-02-06T05:23:09.729Z,92.63
2023-02-06T05:25:36.974Z,84.60
2023-02-06T05:28:05.966Z,80.03
2023-02-06T05:30:33.803Z,75.73
2023-02-06T05:33:00.096Z,76.37
2023-02-06T05:35:26.545Z,73.17
2023-02-06T05:37:52.710Z,76.67
2023-02-06T05:40:19.163Z,78.87
2023-02-06T05:42:45.267Z,72.87
2023-02-06T05:45:11.767Z,73.63
2023-02-06T05:47:37.941Z,83.63
2023-02-06T05:50:04.765Z,84.70
2023-02-06T05:52:31.006Z,94.17
2023-02-06T05:54:57.541Z,77.50
2023-02-06T05:57:23.686Z,64.67
2023-02-06T05:59:50.225Z,75.23
2023-02-06T06:02:16.801Z,60.93
2023-02-06T06:04:43.400Z,67.83
2023-02-06T06:07:10.025Z,61.83
2023-02-06T06:09:36.580Z,77.53
2023-02-06T06:12:03.204Z,75.60
2023-02-06T06:14:29.713Z,83.80
2023-02-06T06:16:55.850Z,92.33
2023-02-06T06:19:22.472Z,77.33
2023-02-06T06:21:48.691Z,69.13
2023-02-06T06:24:15.182Z,61.13
2023-02-06T06:26:41.677Z,61.10
2023-02-06T06:29:08.169Z,64.43
2023-02-06T06:31:34.311Z,57.73
2023-02-06T06:34:01.081Z,56.77
2023-02-06T06:36:27.404Z,54.17
2023-02-06T06:38:53.898Z,49.23
2023-02-06T06:41:20.083Z,48.77
2023-02-06T06:43:46.582Z,60.73
2023-02-06T06:46:12.721Z,57.80
2023-02-06T06:48:39.680Z,47.57
2023-02-06T06:51:06.481Z,52.50
2023-02-06T06:53:33.004Z,55.33
2023-02-06T06:56:03.942Z,47.53
2023-02-06T06:58:30.503Z,57.00
2023-02-06T07:00:56.704Z,59.77
2023-02-06T07:03:23.317Z,63.33
2023-02-06T07:05:50.759Z,62.43
2023-02-06T07:08:18.671Z,75.37
2023-02-06T07:10:46.248Z,73.63
2023-02-06T07:13:14.724Z,61.37
2023-02-06T07:15:42.858Z,58.63
2023-02-06T07:18:11.428Z,69.70
2023-02-06T07:20:38.060Z,154.20
2023-02-06T07:23:05.236Z,91.17
2023-02-06T07:25:32.271Z,64.03
2023-02-06T07:27:58.951Z,59.37
2023-02-06T07:30:25.200Z,62.73
2023-02-06T07:32:51.651Z,55.23
2023-02-06T07:35:18.037Z,55.93
2023-02-06T07:37:44.662Z,69.27
2023-02-06T07:40:11.539Z,58.87
2023-02-06T07:42:39.722Z,60.73
2023-02-06T07:45:18.087Z,58.00
2023-02-06T07:47:45.032Z,65.97
2023-02-06T07:50:11.665Z,66.03
2023-02-06T07:52:38.259Z,68.67
2023-02-06T07:55:04.763Z,67.20
2023-02-06T07:57:31.509Z,64.77
2023-02-06T07:59:57.649Z,55.47
2023-02-06T08:02:24.270Z,59.10
2023-02-06T08:04:50.487Z,63.00
2023-02-06T08:07:17.820Z,65.03
2023-02-06T08:09:44.335Z,50.30
2023-02-06T08:12:12.046Z,50.73
2023-02-06T08:14:38.471Z,48.23
2023-02-06T08:17:05.033Z,46.30
2023-02-06T08:19:31.447Z,57.27
2023-02-06T08:21:58.152Z,43.17
2023-02-06T08:24:25.347Z,45.43
2023-02-06T08:26:52.224Z,48.33
2023-02-06T08:29:18.756Z,52.07
2023-02-06T08:31:45.334Z,53.90
2023-02-06T08:34:14.269Z,54.73
2023-02-06T08:36:43.358Z,65.80
2023-02-06T08:39:14.451Z,44.60
2023-02-06T08:41:43.243Z,50.97
2023-02-06T08:44:15.413Z,59.77
2023-02-06T08:46:44.031Z,50.87
2023-02-06T08:49:13.449Z,109.37
2023-02-06T08:51:40.427Z,56.30
2023-02-06T08:54:10.586Z,57.20
2023-02-06T08:56:37.566Z,44.13
2023-02-06T08:59:05.928Z,44.33
2023-02-06T09:01:34.623Z,42.13
2023-02-06T09:04:03.411Z,49.90
2023-02-06T09:06:29.877Z,45.40
2023-02-06T09:08:56.782Z,51.43
2023-02-06T09:11:24.785Z,46.13
2023-02-06T09:13:57.261Z,46.93
2023-02-06T09:16:24.973Z,47.60
2023-02-06T09:18:54.109Z,46.87
2023-02-06T09:21:25.576Z,44.17
2023-02-06T09:23:54.943Z,43.27
2023-02-06T09:26:23.948Z,45.57
2023-02-06T09:28:55.906Z,48.43
2023-02-06T09:31:24.265Z,50.10
2023-02-06T09:33:50.711Z,74.03
2023-02-06T09:36:19.770Z,73.83
2023-02-06T09:38:49.586Z,255.13
2023-02-06T09:41:31.023Z,67.23
2023-02-06T09:44:13.288Z,57.00
2023-02-06T09:47:04.478Z,51.43
2023-02-06T09:49:48.411Z,40.87
2023-02-06T09:52:21.060Z,49.53
2023-02-06T09:55:00.197Z,43.90
2023-02-06T09:57:45.568Z,39.87
2023-02-06T10:00:23.806Z,39.80
2023-02-06T10:02:50.821Z,37.07
2023-02-06T10:05:37.120Z,36.67
2023-02-06T10:08:24.877Z,37.80
2023-02-06T10:10:55.481Z,27.77
2023-02-06T10:13:34.486Z,29.40
2023-02-06T10:16:07.417Z,30.37
2023-02-06T10:18:39.861Z,49.30
2023-02-06T10:21:19.047Z,34.70
2023-02-06T10:24:18.950Z,40.67
2023-02-06T10:26:47.357Z,36.03
2023-02-06T10:29:35.662Z,28.37
2023-02-06T10:32:15.691Z,34.73
2023-02-06T10:35:05.280Z,24.13
2023-02-06T10:38:06.604Z,35.30
2023-02-06T10:40:39.608Z,32.90
2023-02-06T10:43:39.759Z,34.23
2023-02-06T10:46:22.431Z,31.50
2023-02-06T10:49:18.005Z,28.87
2023-02-06T10:51:48.514Z,18.33
2023-02-06T10:54:22.233Z,21.07
2023-02-06T10:56:52.014Z,21.70
2023-02-06T10:59:44.278Z,19.30
2023-02-06T11:03:08.035Z,15.97
2023-02-06T11:05:35.313Z,21.20
2023-02-06T11:08:23.410Z,20.10
2023-02-06T11:10:50.663Z,19.70
2023-02-06T11:13:34.671Z,15.83
2023-02-06T11:16:02.321Z,18.00
2023-02-06T11:18:35.374Z,20.53
2023-02-06T11:21:02.349Z,21.67
2023-02-06T11:23:30.834Z,35.03
2023-02-06T11:26:26.418Z,32.47
2023-02-06T11:29:01.699Z,15.47
2023-02-06T11:31:40.269Z,18.63
2023-02-06T11:34:35.349Z,11.73
2023-02-06T11:37:23.321Z,10.23
2023-02-06T11:39:49.949Z,11.57
2023-02-06T11:42:27.709Z,10.67
2023-02-06T11:44:54.173Z,9.00
2023-02-06T11:47:31.575Z,11.40
2023-02-06T11:50:34.517Z,7.93
2023-02-06T11:53:17.526Z,11.53
2023-02-06T11:55:45.987Z,10.83
2023-02-06T11:58:12.203Z,11.53
2023-02-06T12:00:54.011Z,9.60
2023-02-06T12:03:31.230Z,11.90
2023-02-06T12:06:03.518Z,13.23
2023-02-06T12:08:42.423Z,14.57
2023-02-06T12:11:19.358Z,15.67
2023-02-06T12:13:52.897Z,20.03
2023-02-06T12:16:21.040Z,23.23
2023-02-06T12:18:51.892Z,19.23
2023-02-06T12:22:03.994Z,20.00
2023-02-06T12:24:41.619Z,20.43
2023-02-06T12:27:20.273Z,16.33
2023-02-06T12:30:01.774Z,16.77
2023-02-06T12:32:38.057Z,16.03
2023-02-06T12:35:31.156Z,22.80
2023-02-06T12:38:04.382Z,18.07
2023-02-06T12:40:37.583Z,13.00
2023-02-06T12:43:10.962Z,14.97
2023-02-06T12:46:00.566Z,16.00
2023-02-06T12:48:46.009Z,13.60
2023-02-06T12:51:18.643Z,14.07
2023-02-06T12:53:52.091Z,12.17
2023-02-06T12:56:30.230Z,14.30
2023-02-06T12:59:06.193Z,15.13
2023-02-06T13:01:44.920Z,14.00
2023-02-06T13:04:22.885Z,10.87
2023-02-06T13:07:10.441Z,11.87
2023-02-06T13:09:46.126Z,12.67
2023-02-06T13:12:22.318Z,11.60
2023-02-06T13:14:53.615Z,16.37
2023-02-06T13:17:24.280Z,15.40
2023-02-06T13:20:00.953Z,13.93
2023-02-06T13:22:33.924Z,22.27
2023-02-06T13:25:24.507Z,19.87
2023-02-06T13:27:52.644Z,11.10
2023-02-06T13:30:28.141Z,16.13
2023-02-06T13:33:08.653Z,19.10
2023-02-06T13:35:54.115Z,16.57
2023-02-06T13:38:23.363Z,14.17
2023-02-06T13:41:14.699Z,15.97
2023-02-06T13:43:56.982Z,34.23
2023-02-06T13:47:00.953Z,17.30
2023-02-06T13:49:56.686Z,16.20
2023-02-06T13:52:34.799Z,19.37
2023-02-06T13:55:30.046Z,13.47
2023-02-06T13:58:26.231Z,14.10
2023-02-06T14:00:55.386Z,13.30
2023-02-06T14:03:25.670Z,15.50
2023-02-06T14:06:04.528Z,14.07
2023-02-06T14:08:37.556Z,13.63
2023-02-06T14:11:13.301Z,16.40
2023-02-06T14:13:39.927Z,58.97
2023-02-06T14:16:09.600Z,51.10
2023-02-06T14:19:09.386Z,46.90
2023-02-06T14:21:58.473Z,17.27
2023-02-06T14:24:32.870Z,14.97
2023-02-06T14:27:17.252Z,17.27
2023-02-06T14:30:02.191Z,12.27
2023-02-06T14:32:37.568Z,16.13
2023-02-06T14:35:32.195Z,17.47
2023-02-06T14:38:17.207Z,13.90
2023-02-06T14:40:49.403Z,15.83
2023-02-06T14:43:22.943Z,13.90
2023-02-06T14:46:05.955Z,26.10
2023-02-06T14:48:49.740Z,21.00
2023-02-06T14:51:38.217Z,14.17
2023-02-06T14:54:07.284Z,25.63
2023-02-06T14:56:38.302Z,23.80
2023-02-06T14:59:15.625Z,15.43
2023-02-06T15:01:45.748Z,15.60
2023-02-06T15:04:14.022Z,14.67
2023-02-06T15:06:44.230Z,13.63
2023-02-06T15:09:35.635Z,15.00
2023-02-06T15:12:17.042Z,15.83
2023-02-06T15:14:52.821Z,10.50
2023-02-06T15:17:21.328Z,13.80
2023-02-06T15:19:47.869Z,13.53
2023-02-06T15:22:20.461Z,12.63
2023-02-06T15:25:04.907Z,13.73
2023-02-06T15:27:34.495Z,19.43
2023-02-06T15:30:11.832Z,20.37
2023-02-06T15:32:39.499Z,17.47
2023-02-06T15:35:20.118Z,18.57
2023-02-06T15:37:46.875Z,29.20
2023-02-06T15:40:13.446Z,25.23
2023-02-06T15:42:40.937Z,35.67
2023-02-06T15:45:24.731Z,17.17
2023-02-06T15:47:53.885Z,15.77
2023-02-06T15:50:23.563Z,24.20
2023-02-06T15:52:50.707Z,33.10
2023-02-06T15:55:31.050Z,36.83
2023-02-06T15:57:59.944Z,31.80
2023-02-06T16:00:30.935Z,17.30
2023-02-06T16:03:04.518Z,14.10
2023-02-06T16:05:41.388Z,17.03
2023-02-06T16:08:24.979Z,15.83
2023-02-06T16:11:05.011Z,15.90
2023-02-06T16:13:32.561Z,13.37
2023-02-06T16:16:11.179Z,18.77
2023-02-06T16:18:41.039Z,13.20
2023-02-06T16:21:16.558Z,15.90
2023-02-06T16:24:11.680Z,15.50
2023-02-06T16:26:41.078Z,18.10
2023-02-06T16:29:07.614Z,14.03
2023-02-06T16:31:36.255Z,32.43
2023-02-06T16:34:30.915Z,25.33
2023-02-06T16:36:57.031Z,16.93
2023-02-06T16:39:23.770Z,17.87
2023-02-06T16:41:52.029Z,19.83
2023-02-06T16:44:19.168Z,27.97
2023-02-06T16:46:48.456Z,27.87
2023-02-06T16:49:18.794Z,34.47
2023-02-06T16:51:46.893Z,27.80
2023-02-06T16:54:28.690Z,33.73
2023-02-06T16:57:00.876Z,38.83
2023-02-06T16:59:27.542Z,38.80
2023-02-06T17:01:54.819Z,32.20
2023-02-06T17:04:21.688Z,40.67
2023-02-06T17:06:48.310Z,34.23
2023-02-06T17:09:17.365Z,45.73
2023-02-06T17:11:44.072Z,46.27
2023-02-06T17:14:11.629Z,31.73
2023-02-06T17:16:38.116Z,32.23
2023-02-06T17:19:05.320Z,33.83
2023-02-06T17:21:32.403Z,32.30
2023-02-06T17:23:59.569Z,32.97
2023-02-06T17:26:25.980Z,37.63
2023-02-06T17:28:52.793Z,51.50
2023-02-06T17:31:19.280Z,70.37
2023-02-06T17:33:46.118Z,79.27
2023-02-06T17:36:21.924Z,99.90
2023-02-06T17:38:48.962Z,81.70
2023-02-06T17:41:15.092Z,72.93
2023-02-06T17:43:41.674Z,90.70
2023-02-06T17:46:09.948Z,105.20
2023-02-06T17:48:41.969Z,108.00
2023-02-06T17:51:09.099Z,67.70
2023-02-06T17:53:36.015Z,47.33
2023-02-06T17:56:14.390Z,45.07
2023-02-06T17:58:42.915Z,28.80
2023-02-06T18:01:14.363Z,26.57
2023-02-06T18:03:41.819Z,34.00
2023-02-06T18:06:08.784Z,33.40
2023-02-06T18:08:35.749Z,29.10
2023-02-06T18:11:13.002Z,32.90
2023-02-06T18:13:41.835Z,60.50
2023-02-06T18:16:14.288Z,96.17
2023-02-06T18:18:41.484Z,116.60
2023-02-06T18:21:07.864Z,114.53
2023-02-06T18:23:34.789Z,130.13
2023-02-06T18:26:03.973Z,105.07
2023-02-06T18:28:31.457Z,116.93
2023-02-06T18:31:01.419Z,149.13
2023-02-06T18:33:30.067Z,163.43
2023-02-06T18:35:56.679Z,171.20
2023-02-06T18:38:24.023Z,176.13
2023-02-06T18:40:50.586Z,165.03
2023-02-06T18:43:17.553Z,169.77
2023-02-06T18:45:44.014Z,143.73
2023-02-06T18:48:12.518Z,155.37
2023-02-06T18:50:41.483Z,131.50
2023-02-06T18:53:08.951Z,139.33
2023-02-06T18:55:36.553Z,152.47
2023-02-06T18:58:05.405Z,149.40
2023-02-06T19:00:37.141Z,149.33
2023-02-06T19:03:04.522Z,110.90
2023-02-06T19:05:35.492Z,80.00
2023-02-06T19:08:02.467Z,70.03
2023-02-06T19:10:31.489Z,89.50
2023-02-06T19:12:58.553Z,94.70
2023-02-06T19:15:25.027Z,97.67
2023-02-06T19:17:51.955Z,90.80
2023-02-06T19:20:19.528Z,90.97
2023-02-06T19:22:46.651Z,83.03
2023-02-06T19:25:14.713Z,89.80
2023-02-06T19:27:41.787Z,91.73
2023-02-06T19:30:08.787Z,95.77
2023-02-06T19:32:35.587Z,85.33
2023-02-06T19:35:03.409Z,82.93
2023-02-06T19:37:30.798Z,82.40
2023-02-06T19:39:57.315Z,80.17
2023-02-06T19:42:24.359Z,87.93
2023-02-06T19:44:53.857Z,82.60
2023-02-06T19:47:21.331Z,100.83
2023-02-06T19:49:55.423Z,107.33
2023-02-06T19:52:22.506Z,102.37
2023-02-06T19:54:49.371Z,112.73
2023-02-06T19:57:18.653Z,104.23
2023-02-06T19:59:46.228Z,116.90
2023-02-06T20:02:15.055Z,172.03
2023-02-06T20:04:41.708Z,212.37
2023-02-06T20:07:08.596Z,160.90
2023-02-06T20:09:35.857Z,163.80
2023-02-06T20:12:03.031Z,134.70
2023-02-06T20:14:30.304Z,148.40
2023-02-06T20:16:57.232Z,138.43
2023-02-06T20:19:27.022Z,139.60
2023-02-06T20:21:58.633Z,147.23
2023-02-06T20:24:30.073Z,149.93
2023-02-06T20:27:00.264Z,137.83
2023-02-06T20:29:33.119Z,133.23
2023-02-06T20:32:00.739Z,123.43
2023-02-06T20:34:28.732Z,112.20
2023-02-06T20:36:56.813Z,111.57
2023-02-06T20:39:25.066Z,97.80
2023-02-06T20:41:52.821Z,86.90
2023-02-06T20:44:20.231Z,84.03
2023-02-06T20:46:47.480Z,75.43
2023-02-06T20:49:20.794Z,65.93
2023-02-06T20:51:48.852Z,78.20
2023-02-06T20:54:17.138Z,74.57
2023-02-06T20:56:45.714Z,72.40
2023-02-06T20:59:14.188Z,75.13
2023-02-06T21:01:41.499Z,66.63
2023-02-06T21:04:11.023Z,74.00
2023-02-06T21:06:38.534Z,75.77
2023-02-06T21:09:06.617Z,84.43
2023-02-06T21:11:38.340Z,71.20
2023-02-06T21:14:06.013Z,70.73
2023-02-06T21:16:34.655Z,62.40
2023-02-06T21:19:02.022Z,59.83
2023-02-06T21:21:28.899Z,65.30
2023-02-06T21:23:55.318Z,71.00
2023-02-06T21:26:23.061Z,66.93
2023-02-06T21:28:50.224Z,74.13
2023-02-06T21:31:37.478Z,77.50
2023-02-06T21:34:14.993Z,72.87
2023-02-06T21:36:42.385Z,71.63
2023-02-06T21:39:10.654Z,79.50
2023-02-06T21:41:37.522Z,80.27
2023-02-06T21:44:04.204Z,78.37
2023-02-06T21:46:30.997Z,81.73
2023-02-06T21:48:58.138Z,84.10
2023-02-06T21:51:25.451Z,92.30
2023-02-06T21:53:51.978Z,79.53
2023-02-06T21:56:26.636Z,109.37
2023-02-06T21:58:53.717Z,101.40
2023-02-06T22:01:24.266Z,98.83
2023-02-06T22:03:51.600Z,101.80
2023-02-06T22:06:19.471Z,95.43
2023-02-06T22:08:51.208Z,109.30
2023-02-06T22:11:29.402Z,111.43
2023-02-06T22:14:05.939Z,110.63
2023-02-06T22:16:33.860Z,100.40
2023-02-06T22:19:00.140Z,98.27
2023-02-06T22:21:29.020Z,99.03
2023-02-06T22:23:57.955Z,91.43
2023-02-06T22:26:26.091Z,98.40
2023-02-06T22:28:52.852Z,89.63
2023-02-06T22:31:25.639Z,86.23
2023-02-06T22:33:52.908Z,85.20
2023-02-06T22:36:22.191Z,84.07
2023-02-06T22:38:54.421Z,99.07
2023-02-06T22:41:21.048Z,102.23
2023-02-06T22:43:49.299Z,102.13
2023-02-06T22:46:27.955Z,102.30
2023-02-06T22:48:54.539Z,108.33
2023-02-06T22:51:21.799Z,121.97
2023-02-06T22:53:48.662Z,130.30
2023-02-06T22:56:27.229Z,145.90
2023-02-06T22:59:01.444Z,137.63
2023-02-06T23:01:42.573Z,148.73
2023-02-06T23:04:23.349Z,136.97
2023-02-06T23:06:50.783Z,135.70
2023-02-06T23:09:25.907Z,122.13
2023-02-06T23:11:53.864Z,121.33
2023-02-06T23:14:20.529Z,103.90
2023-02-06T23:16:47.710Z,104.93
2023-02-06T23:19:15.058Z,123.37
2023-02-06T23:21:42.482Z,118.87
2023-02-06T23:24:09.492Z,129.50
2023-02-06T23:26:37.141Z,127.50
2023-02-06T23:29:06.494Z,135.27
2023-02-06T23:31:34.252Z,133.63
2023-02-06T23:34:00.662Z,125.90
2023-02-06T23:36:27.958Z,132.30
2023-02-06T23:38:54.330Z,121.43
2023-02-06T23:41:25.448Z,119.10
2023-02-06T23:43:56.863Z,136.47
2023-02-06T23:46:24.373Z,131.20
2023-02-06T23:48:51.273Z,123.17
2023-02-06T23:51:18.760Z,120.13
2023-02-06T23:53:44.901Z,123.30
2023-02-06T23:56:13.171Z,117.23
2023-02-06T23:58:40.004Z,131.67
